Wednesday, October 18, 2017, 5:09 PM CDT
Back to Local

KCNU, Chanute Johnson Airport

Location: Chanute, KS, United States Lat: 37.667
Local Time: 5:09 PM CDT (22:09 GMT) Lon: -95.483
Time Zone: US/Central Elev: 1000 ft

Show me the last for .
Show Decoded

2017-10-18 16:52 METAR KCNU 182152Z AUTO 18010KT 10SM CLR 23/11 A3002 RMK AO2 SLP160 T02280106 =
2017-10-18 15:52 METAR KCNU 182052Z AUTO 17009KT 10SM CLR 23/11 A3002 RMK AO2 SLP161 T02280106
                 56010 =
2017-10-18 14:52 METAR KCNU 181952Z AUTO 18011KT 10SM CLR 23/10 A3003 RMK AO2 SLP163 T02280100 =
2017-10-18 13:52 METAR KCNU 181852Z AUTO 19013KT 10SM CLR 23/10 A3004 RMK AO2 SLP166 T02280100 =
2017-10-18 12:52 METAR KCNU 181752Z AUTO 19017G22KT 10SM CLR 22/09 A3006 RMK AO2 PK WND
                 20027/1658 SLP172 60000 T02170089 10222 20083 58015 =
2017-10-18 11:52 METAR KCNU 181652Z AUTO 19017KT 10SM CLR 21/08 A3008 RMK AO2 PK WND 19029/1607
                 SLP179 T02060083 =
2017-10-18 10:52 METAR KCNU 181552Z AUTO 19016G26KT 10SM CLR 18/08 A3008 RMK AO2 PK WND
                 19030/1530 RAE20 SLP183 P0000 T01780078 =
2017-10-18 09:52 METAR KCNU 181452Z AUTO 18018G27KT 10SM -RA CLR 16/07 A3010 RMK AO2 PK WND
                 17027/1448 RAB1353 SLP190 P0000 60000 T01610067 53004 =
2017-10-18 08:52 METAR KCNU 181352Z AUTO 17016KT 10SM CLR 14/07 A3009 RMK AO2 SLP187 T01390072 =
2017-10-18 07:52 METAR KCNU 181252Z AUTO 16007KT 10SM CLR 09/06 A3009 RMK AO2 SLP186 T00890061 =
2017-10-18 06:52 METAR KCNU 181152Z AUTO 15006KT 10SM CLR 09/07 A3009 RMK AO2 SLP186 T00940067
                 10117 20083 54000 =
2017-10-18 05:52 METAR KCNU 181052Z AUTO 15006KT 10SM CLR 09/06 A3009 RMK AO2 SLP186 T00890061 =
2017-10-18 04:52 METAR KCNU 180952Z AUTO 13006KT 10SM CLR 09/07 A3009 RMK AO2 SLP184 T00890067 =
2017-10-18 03:52 METAR KCNU 180852Z AUTO 14008KT 10SM CLR 09/07 A3009 RMK AO2 SLP184 T00940072
                 58010 =
2017-10-18 02:52 METAR KCNU 180752Z AUTO 16007KT 10SM CLR 10/07 A3010 RMK AO2 SLP188 T01000067 =
2017-10-18 01:52 METAR KCNU 180652Z AUTO 17007KT 10SM CLR 11/07 A3011 RMK AO2 SLP190 T01110072 =
2017-10-18 00:52 METAR KCNU 180552Z AUTO 17007KT 10SM CLR 11/07 A3012 RMK AO2 SLP195 60000
                 T01060072 10161 20106 402170061 58005 =
2017-10-17 23:52 METAR KCNU 180452Z AUTO 17007KT 10SM CLR 11/07 A3013 RMK AO2 SLP199 T01110072 =
2017-10-17 22:52 METAR KCNU 180352Z AUTO 17006KT 10SM CLR 12/08 A3014 RMK AO2 SLP201 T01170078 =
2017-10-17 21:52 METAR KCNU 180252Z AUTO 15007KT 10SM CLR 12/08 A3013 RMK AO2 SLP202 60000
                 T01170078 53007 =
2017-10-17 20:52 METAR KCNU 180152Z AUTO 16008KT 10SM CLR 14/08 A3012 RMK AO2 SLP198 T01390078 =
2017-10-17 19:52 METAR KCNU 180052Z AUTO 16009KT 10SM CLR 15/08 A3012 RMK AO2 RAE04 SLP197 P0000
                 T01500083 =
2017-10-17 18:52 METAR KCNU 172352Z AUTO 16008KT 10SM -RA CLR 16/09 A3011 RMK AO2 SLP194 P0000
                 60000 T01610089 10217 20161 56007 =
2017-10-17 17:52 METAR KCNU 172252Z AUTO 17009KT 10SM -RA CLR 20/08 A3012 RMK AO2 SLP195 P0000
                 T02000083 =

Support USWX by starting your Amazon purchase here.